x

Nw Lake Ontario Ajax (45159) Wave Buoy

8:00pm - Tue 23rd Aug 2016 All times are CDT. -5 hours from GMT.

  • Sig Wave height 1.6ft
  • Peak Period 3s
  • Wind
    13mph, 16mph gusts
  • Sea Temp 70°f
  • Air Temp 73°f
  • Sea Pressure 1022.6mb
  • Nw Lake Ontario Ajax
  • Nw Lake Ontario Ajax

More Historic Weather Station data

Upgrade to MSW Pro to gain access to the past 30 days of data for over 8000 Wavebouys and Weather Stations around the globe.

Join Pro

Comparision Forecast

View Surf forecast
   
Tue 08/23 8:00pm 1.6ft 3s 13 16 mph 1022.6mb 70f 73f
7:00pm 1.6ft 3s 13 18 mph 1022.2mb 70f 73f
6:00pm 1.3ft 3s 16 18 mph 1022mb 71f 74f
5:00pm 1.3ft 3s 18 20 mph 1022.1mb 72f 75f
4:00pm 1.3ft 3s 18 20 mph 1022.4mb 72f 74f
3:00pm 1.3ft 3s 16 18 mph 1022.6mb 72f 74f
2:00pm 1.3ft 3s 16 18 mph 1023mb 72f 73f
1:00pm 1.6ft 4s 13 16 mph 1023.7mb 72f 73f
12:00pm 1.6ft 4s 16 18 mph 1023.9mb 72f 73f
11:00am 1.6ft 4s 16 18 mph 1024.1mb 72f 71f
10:00am 1.3ft 3s 16 18 mph 1024.1mb 72f 70f
9:00am 1ft 3s 13 16 mph 1024.2mb 72f 69f
8:00am 0.7ft 3s 9 11 mph 1024.7mb 72f 69f
7:00am 0.7ft 3s 2 4 mph 1024.7mb 72f 66f
6:00am 0.7ft 3s 4 9 mph 1024.6mb 72f 68f
5:00am 0.3ft 3s  -  2 mph 1024.4mb 72f 65f
4:00am 0.3ft 3s 2
mph
1024.1mb 72f 65f
3:00am 0.7ft 3s 2 4 mph 1023.8mb 72f 66f
2:00am 0.7ft 3s 2 4 mph 1023.6mb 72f 66f
1:00am 0.7ft 3s 4
mph
1023.3mb 72f 66f
12:00am 0.7ft 3s 4
mph
1023mb 72f 67f
Mon 08/22 11:00pm 0.3ft 2s 4
mph
1022.5mb 72f 70f
10:00pm 0.3ft 2s  -  mph 1022.4mb 72f 69f
9:00pm 0.3ft 2s 4
mph
1022.4mb 72f 70f
8:00pm 0.3ft 2s 4 7 mph 1021.7mb 72f 70f
7:00pm 0.7ft 3s 2 7 mph 1021.2mb 72f 71f
6:00pm 0.7ft 3s 4 7 mph 1020.8mb 71f 72f
5:00pm 1ft 3s 4
mph
1020.6mb 71f 73f
4:00pm 1.3ft 3s 9 13 mph 1020.4mb 71f 72f
3:00pm 1ft 3s 11 18 mph 1020.4mb 71f 71f
2:00pm 1ft 3s 11 13 mph 1020.7mb 71f 69f
1:00pm 1ft 3s 13 16 mph 1020.6mb 71f 67f
12:00pm 0.3ft 2s 11 16 mph 1020.6mb 71f 66f
11:00am 0.3ft 2s 11 13 mph 1020.7mb 71f 65f
10:00am 0.3ft 3s 7 9 mph 1020.8mb 71f 65f
9:00am 0.3ft 3s 2 7 mph 1020.6mb 71f 64f
8:00am 0.3ft 3s 2 4 mph 1020mb 71f 62f
7:00am 0.7ft 2s 7 9 mph 1019.4mb 71f 61f
6:00am 0.7ft 2s 11 13 mph 1018.8mb 71f 61f
5:00am 0.3ft 2s 11 13 mph 1017.5mb 71f 62f
4:00am 0.7ft 3s 9
mph
1017mb 71f 62f
3:00am 0.7ft 3s 9 11 mph 1016.4mb 71f 62f
2:00am 1ft 3s 11 16 mph 1015.5mb 71f 63f
1:00am 1ft 4s 11 13 mph 1014.8mb 71f 64f
12:00am 1.3ft 4s 16 18 mph 1013.8mb 71f 66f
Sun 08/21 11:00pm 1.3ft 4s 16 18 mph 1013.1mb 71f 66f
10:00pm 1.3ft 4s 16 18 mph 1012.4mb 72f 67f
9:00pm 1.6ft 4s 16 20 mph 1012mb 72f 69f
8:00pm 2ft 4s 18 20 mph 1011.1mb 72f 71f
7:00pm 2ft 4s 18 20 mph 1009.9mb 72f 72f
6:00pm 2.5ft 4s 16 20 mph 1009.2mb 72f 73f
5:00pm 3ft 5s 20 25 mph 1008.2mb 73f 73f
4:00pm 3ft 5s 25 29 mph 1006.7mb 73f 75f
3:00pm 3.5ft 5s 18 22 mph 1006.1mb 73f 76f
2:00pm 3ft 5s 18 20 mph 1006.1mb 73f 76f
1:00pm 3ft 5s 20 22 mph 1005.8mb 73f 73f
12:00pm 2.5ft 4s 18 22 mph 1005.6mb 72f 74f
11:00am 2.5ft 4s 18 22 mph 1005.2mb 72f 74f
10:00am 2.5ft 4s 18 22 mph 1004.8mb 72f 73f
9:00am 2.5ft 4s 20 25 mph 1004.1mb 72f 72f
8:00am 3ft 4s 20 22 mph 1003.3mb 72f 73f
7:00am 3.5ft 5s 18 20 mph 1002.6mb 72f 73f
6:00am 3.5ft 5s 18 20 mph 1002.4mb 72f 73f
5:00am 3.5ft 5s 22 27 mph 1001.6mb 72f 73f
4:00am 3ft 5s 18 22 mph 1001.3mb 72f 75f
3:00am 3ft 4s 18 20 mph 1001.6mb 72f 76f
2:00am 2.5ft 4s 16 20 mph 1001.9mb 72f 76f
1:00am 2.5ft 4s 18 20 mph 1002.2mb 71f 76f
12:00am 2.5ft 4s 18 20 mph 1002.7mb 72f 76f
Sat 08/20 11:00pm 2.5ft 5s 16 18 mph 1003.1mb 72f 76f
10:00pm 2.5ft 4s 20 22 mph 1003.3mb 72f 77f
9:00pm 1.6ft 4s 18 20 mph 1004.2mb 72f 75f
8:00pm 1.6ft 3s 16 18 mph 1005.1mb 73f 74f
7:00pm 1ft 3s 20 25 mph 1005.3mb 74f 76f
6:00pm 1ft 2s 13 16 mph 1005.8mb 74f 75f
5:00pm 0.7ft 2s 16 18 mph 1006.2mb 74f 76f
4:00pm 0.7ft 3s 11
mph
1006.9mb 75f 76f
3:00pm 0.7ft 2s 7 9 mph 1007.2mb 75f 77f
2:00pm 0.7ft 2s 4
mph
1007.9mb 74f 77f
1:00pm 0.7ft 3s 9
mph
1008.4mb 73f 75f
12:00pm 0.7ft 3s 7 9 mph 1008.8mb 73f 74f
11:00am 0.7ft 3s 9 11 mph 1009.4mb 73f 73f
10:00am 0.7ft 4s 7 9 mph 1009.9mb 73f 73f
9:00am 0.7ft 4s 7
mph
1010mb 72f 73f
8:00am 0.3ft 4s 4 7 mph 1010.1mb 71f 73f
7:00am 0.3ft 3s 2
mph
1010.4mb 71f 72f
6:00am 0.3ft 3s 4
mph
1010.4mb 71f 72f
5:00am 0.3ft 3s 4
mph
1009.9mb 71f 71f
4:00am 0.3ft 3s 2 4 mph 1010mb 71f 71f
3:00am 0.3ft 3s 2
mph
1010.7mb 71f 71f